Terminal Aerodrome Forecast
Issued by NWS

Home | Current Version | Previous Version | Graphics & Text | Print | Product List | Glossary On
Versions: 1 2 3 4 5 6 7 8 9 10 11 12
263
FTUS42 KMHX 250537
TAFISO
TAF
KISO 250537Z 2506/2606 VRB03KT 3SM BR FEW250
      TEMPO 2506/2510 3/4SM BR BKN007
     FM251000 00000KT 1SM BR BKN007
     FM251230 VRB04KT 5SM BR SCT250
     FM251400 20006KT P6SM SCT250
     FM251900 22014G24KT P6SM SCT150
     FM260300 30011G19KT P6SM FEW200
      AMD LTD TO CLD VIS AND WIND=

USA.gov is the U.S. government's official web portal to all federal, state and local government web resources and services.